Time;durP1;ratioP1;P1;durP2;ratioP2;P2;SDS_P1;SDS_P2;PMS_P1;PMS_P2;Temp;Humidity;BMP_temperature;BMP_pressure;BME280_temperature;BME280_humidity;BME280_pressure;Samples;Min_cycle;Max_cycle;Signal;HPM_P1;HPM_P2
2022/11/04 00:00:49;;;;;;;1.25;0.55;;;20.60;1.00;;;;;;4879368;29;20467;-46
2022/11/04 00:03:16;;;;;;;1.65;0.20;;;20.60;1.00;;;;;;4879973;29;20037;-50
2022/11/04 00:05:42;;;;;;;3.45;0.57;;;20.50;1.00;;;;;;4879503;29;20045;-48
2022/11/04 00:08:24;;;;;;;1.27;0.30;;;20.50;1.00;;;;;;4879404;29;20041;-49
2022/11/04 00:13:45;;;;;;;1.67;0.30;;;20.50;1.00;;;;;;4879682;29;20052;-49
2022/11/04 00:18:59;;;;;;;2.10;0.65;;;20.40;1.00;;;;;;4881272;29;20455;-52
2022/11/04 00:30:07;;;;;;;4.32;0.40;;;20.30;1.00;;;;;;4880431;29;20511;-53
2022/11/04 00:35:20;;;;;;;1.25;0.40;;;20.20;1.00;;;;;;4864511;29;20128;-52
2022/11/04 00:37:46;;;;;;;3.92;0.40;;;20.20;1.00;;;;;;4864345;29;20050;-51
2022/11/04 00:40:15;;;;;;;1.90;0.30;;;20.20;1.00;;;;;;4863910;29;20057;-53
2022/11/04 00:42:44;;;;;;;5.78;0.95;;;20.10;1.00;;;;;;4864151;29;20045;-52
2022/11/04 00:45:11;;;;;;;1.35;0.30;;;20.10;1.00;;;;;;4864292;29;20073;-52
2022/11/04 00:47:38;;;;;;;2.75;0.57;;;20.10;1.00;;;;;;4864148;29;20049;-51
2022/11/04 00:50:05;;;;;;;3.30;0.43;;;20.00;1.00;;;;;;4863715;29;20053;-52
2022/11/04 00:52:32;;;;;;;2.33;0.68;;;20.00;1.00;;;;;;4864156;29;20045;-51
2022/11/04 00:54:59;;;;;;;2.20;0.50;;;20.00;1.00;;;;;;4864243;29;20507;-52
2022/11/04 00:57:26;;;;;;;2.05;0.47;;;19.90;1.00;;;;;;4863984;29;20053;-50
2022/11/04 00:59:53;;;;;;;1.38;0.35;;;19.90;1.00;;;;;;4863713;29;20042;-50
2022/11/04 01:02:20;;;;;;;1.55;0.47;;;19.90;1.00;;;;;;4863055;29;20096;-51
2022/11/04 01:04:47;;;;;;;1.50;0.20;;;19.90;1.00;;;;;;4863893;29;20124;-49
2022/11/04 01:07:13;;;;;;;2.20;0.50;;;19.90;1.00;;;;;;4863686;29;20049;-51
2022/11/04 01:09:40;;;;;;;2.22;0.63;;;19.90;1.00;;;;;;4863630;29;20101;-52
2022/11/04 01:12:07;;;;;;;2.17;0.60;;;19.80;1.00;;;;;;4863916;29;20050;-48
2022/11/04 01:14:34;;;;;;;3.83;0.73;;;19.80;1.00;;;;;;4864032;29;20049;-51
2022/11/04 01:17:01;;;;;;;3.55;0.52;;;19.80;1.00;;;;;;4863823;29;20045;-52
2022/11/04 01:19:27;;;;;;;1.08;0.30;;;19.70;1.00;;;;;;4863477;29;20116;-49
2022/11/04 01:21:54;;;;;;;1.83;0.30;;;19.70;1.00;;;;;;4863804;29;20038;-53
2022/11/04 01:24:21;;;;;;;2.05;0.20;;;19.70;1.00;;;;;;4863647;29;20049;-52
2022/11/04 01:26:48;;;;;;;5.88;0.45;;;19.70;1.00;;;;;;4863345;29;20049;-51
2022/11/04 01:29:15;;;;;;;1.98;0.40;;;19.70;1.00;;;;;;4862853;29;20109;-52
2022/11/04 01:31:42;;;;;;;1.52;0.30;;;19.60;1.00;;;;;;4865208;29;20484;-51
2022/11/04 01:34:09;;;;;;;1.63;0.28;;;19.60;1.00;;;;;;4881972;29;20495;-53
2022/11/04 01:36:35;;;;;;;1.58;0.55;;;19.60;1.00;;;;;;4881801;29;20049;-52
2022/11/04 01:39:02;;;;;;;1.63;0.15;;;19.60;1.00;;;;;;4881588;29;20053;-54
2022/11/04 01:41:31;;;;;;;1.70;0.40;;;19.50;1.00;;;;;;4881584;29;20087;-53
2022/11/04 01:43:59;;;;;;;1.67;0.98;;;19.50;1.00;;;;;;4881709;29;20117;-52
2022/11/04 01:46:42;;;;;;;0.98;0.20;;;19.50;1.00;;;;;;4881772;29;20059;-52
2022/11/04 01:49:32;;;;;;;1.00;0.40;;;19.50;1.00;;;;;;4881364;29;20063;-52
2022/11/04 01:52:03;;;;;;;1.33;0.20;;;19.50;1.00;;;;;;4881634;29;20051;-50
2022/11/04 01:54:31;;;;;;;0.43;0.10;;;19.40;1.00;;;;;;4881710;29;20055;-50
2022/11/04 01:57:02;;;;;;;1.85;0.38;;;19.40;1.00;;;;;;4881432;29;20053;-50
2022/11/04 01:59:37;;;;;;;4.05;0.55;;;19.40;1.00;;;;;;4881065;29;20051;-51
2022/11/04 02:02:05;;;;;;;1.73;0.20;;;19.40;1.00;;;;;;4881479;29;20072;-53
2022/11/04 02:04:32;;;;;;;3.85;0.55;;;19.40;1.00;;;;;;4880415;29;20474;-49
2022/11/04 02:07:01;;;;;;;1.15;0.40;;;19.30;1.00;;;;;;4881662;29;20052;-51
2022/11/04 02:09:30;;;;;;;2.78;0.30;;;19.30;1.00;;;;;;4880804;29;20049;-50
2022/11/04 02:14:45;;;;;;;0.63;0.10;;;19.30;1.00;;;;;;4881536;29;20048;-55
2022/11/04 02:17:18;;;;;;;1.73;0.40;;;19.30;1.00;;;;;;4881111;29;20060;-53
2022/11/04 02:20:06;;;;;;;0.95;0.45;;;19.20;1.00;;;;;;4880900;29;20045;-51
2022/11/04 02:23:06;;;;;;;0.47;0.20;;;19.20;1.00;;;;;;4881319;29;20041;-54
2022/11/04 02:26:15;;;;;;;3.60;0.30;;;19.20;1.00;;;;;;4881159;29;20041;-53
2022/11/04 02:28:50;;;;;;;4.13;0.47;;;19.20;1.00;;;;;;4867606;29;20079;-54
2022/11/04 02:31:32;;;;;;;5.22;0.40;;;19.20;1.00;;;;;;4880897;29;20059;-52
2022/11/04 02:34:08;;;;;;;2.63;0.32;;;19.10;1.00;;;;;;4844131;29;20060;-50
2022/11/04 02:36:51;;;;;;;0.75;0.30;;;19.10;1.00;;;;;;4843715;29;20105;-51
2022/11/04 02:39:34;;;;;;;1.00;0.32;;;19.10;1.00;;;;;;4843391;29;20054;-49
2022/11/04 02:42:13;;;;;;;0.63;0.20;;;19.10;1.00;;;;;;4843249;29;20083;-50
2022/11/04 02:44:57;;;;;;;2.65;0.20;;;19.10;1.00;;;;;;4843807;29;20049;-49
2022/11/04 02:47:29;;;;;;;4.75;0.80;;;19.10;1.00;;;;;;4843839;29;20066;-52
2022/11/04 02:50:22;;;;;;;1.88;0.32;;;19.00;1.00;;;;;;4843340;29;20433;-52
2022/11/04 02:52:59;;;;;;;5.85;0.55;;;19.00;1.00;;;;;;4843507;29;20412;-53
2022/11/04 02:55:32;;;;;;;2.17;0.50;;;19.00;1.00;;;;;;4843449;29;20077;-51
2022/11/04 02:58:03;;;;;;;0.25;0.05;;;19.00;1.00;;;;;;4843333;29;20135;-49
2022/11/04 03:00:31;;;;;;;2.25;0.35;;;19.00;1.00;;;;;;4843034;29;20041;-55
2022/11/04 03:03:04;;;;;;;2.85;0.73;;;19.00;1.00;;;;;;4843384;29;20094;-51
2022/11/04 03:05:35;;;;;;;1.08;0.20;;;18.90;1.00;;;;;;4843698;29;20049;-49
2022/11/04 03:08:15;;;;;;;2.58;0.38;;;18.90;1.00;;;;;;4843220;29;20104;-49
2022/11/04 03:10:46;;;;;;;1.60;0.20;;;18.90;1.00;;;;;;4843099;29;20064;-49
2022/11/04 03:13:15;;;;;;;2.53;0.95;;;18.90;1.00;;;;;;4843220;29;20057;-47
2022/11/04 03:15:49;;;;;;;0.60;0.20;;;18.90;1.00;;;;;;4843161;29;20049;-51
2022/11/04 03:18:34;;;;;;;0.75;0.20;;;18.90;1.00;;;;;;4843034;29;20382;-49
2022/11/04 03:21:03;;;;;;;4.38;0.85;;;18.90;1.00;;;;;;4842927;29;20053;-49
2022/11/04 03:23:30;;;;;;;0.93;0.22;;;18.80;1.00;;;;;;4843170;29;20049;-51
2022/11/04 03:26:07;;;;;;;2.97;0.52;;;18.80;1.00;;;;;;4842905;29;20045;-52
2022/11/04 03:28:53;;;;;;;3.92;0.52;;;18.80;1.00;;;;;;4843016;29;20050;-51
2022/11/04 03:31:35;;;;;;;2.08;0.80;;;18.80;1.00;;;;;;4842707;29;20054;-50
2022/11/04 03:34:02;;;;;;;4.15;0.68;;;18.80;1.00;;;;;;4861584;29;20077;-52
2022/11/04 03:36:29;;;;;;;3.70;0.50;;;18.80;1.00;;;;;;4861166;29;20103;-48
2022/11/04 03:38:56;;;;;;;1.17;0.50;;;18.70;1.00;;;;;;4861040;29;20041;-52
2022/11/04 03:41:30;;;;;;;3.08;1.25;;;18.70;1.00;;;;;;4861073;29;20049;-48
2022/11/04 03:43:57;;;;;;;0.32;0.20;;;18.70;1.00;;;;;;4861639;29;20037;-48
2022/11/04 03:46:24;;;;;;;0.82;0.28;;;18.70;1.00;;;;;;4861171;29;20038;-52
2022/11/04 03:48:52;;;;;;;0.95;0.30;;;18.70;1.00;;;;;;4860776;29;20056;-49
2022/11/04 03:51:19;;;;;;;1.52;0.25;;;18.70;1.00;;;;;;4861155;29;20094;-50
2022/11/04 03:53:47;;;;;;;2.10;0.55;;;18.70;1.00;;;;;;4860974;29;20052;-53
2022/11/04 03:56:25;;;;;;;1.45;0.30;;;18.70;1.00;;;;;;4861096;29;20052;-53
2022/11/04 03:59:25;;;;;;;1.85;0.50;;;18.70;1.00;;;;;;4860603;29;20053;-51
2022/11/04 04:01:56;;;;;;;2.60;0.65;;;18.60;1.00;;;;;;4830190;29;20085;-52
2022/11/04 04:04:37;;;;;;;1.50;0.38;;;18.60;1.00;;;;;;4861037;29;20049;-53
2022/11/04 04:07:11;;;;;;;2.60;0.60;;;18.60;1.00;;;;;;4860889;29;20602;-51
2022/11/04 04:09:44;;;;;;;2.53;0.52;;;18.60;1.00;;;;;;4860701;29;20102;-53
2022/11/04 04:12:35;;;;;;;1.35;0.40;;;18.60;1.00;;;;;;4860917;29;20084;-51
2022/11/04 04:15:12;;;;;;;2.95;0.40;;;18.50;1.00;;;;;;4860607;29;20045;-53
2022/11/04 04:17:45;;;;;;;3.53;0.63;;;18.60;1.00;;;;;;4875165;29;20136;-52
2022/11/04 04:20:19;;;;;;;3.60;0.35;;;18.60;1.00;;;;;;4860846;29;20163;-53
2022/11/04 04:22:55;;;;;;;1.15;0.20;;;18.60;1.00;;;;;;4861234;29;20045;-51
2022/11/04 04:28:16;;;;;;;2.00;0.50;;;18.50;1.00;;;;;;4861271;29;20050;-53
2022/11/04 04:30:43;;;;;;;2.72;0.30;;;18.50;1.00;;;;;;4860818;29;20564;-50
2022/11/04 04:33:14;;;;;;;4.18;1.02;;;18.50;1.00;;;;;;4873977;29;20571;-51
2022/11/04 04:35:53;;;;;;;1.70;0.50;;;18.50;1.00;;;;;;4879145;29;20053;-49
2022/11/04 04:47:01;;;;;;;0.73;0.30;;;18.40;1.00;;;;;;4879166;29;20037;-53
2022/11/04 04:49:33;;;;;;;2.95;0.60;;;18.40;1.00;;;;;;4878883;29;20053;-52
2022/11/04 04:52:03;;;;;;;0.40;0.13;;;18.40;1.00;;;;;;4879150;29;20124;-50
2022/11/04 04:54:30;;;;;;;1.55;0.30;;;18.40;1.00;;;;;;4879022;29;20128;-51
2022/11/04 04:56:56;;;;;;;6.32;0.40;;;18.40;1.00;;;;;;4878921;29;20041;-52
2022/11/04 04:59:23;;;;;;;1.35;0.40;;;18.40;1.00;;;;;;4878656;29;20049;-51
2022/11/04 05:01:50;;;;;;;2.25;0.57;;;18.40;1.00;;;;;;4877923;29;20117;-53
2022/11/04 05:04:17;;;;;;;3.13;0.50;;;18.40;1.00;;;;;;4880351;29;20047;-52
2022/11/04 05:06:44;;;;;;;2.92;0.45;;;18.40;1.00;;;;;;4882268;29;20037;-53
2022/11/04 05:09:10;;;;;;;2.20;0.43;;;18.40;1.00;;;;;;4881952;29;20095;-52
2022/11/04 05:11:37;;;;;;;1.98;0.47;;;18.40;1.00;;;;;;4870081;29;20052;-53
2022/11/04 05:14:04;;;;;;;2.50;1.35;;;18.40;1.00;;;;;;4858517;29;20098;-52
2022/11/04 05:16:31;;;;;;;1.95;0.35;;;18.30;1.00;;;;;;4863889;29;20072;-48
2022/11/04 05:19:05;;;;;;;10.50;0.93;;;18.30;1.00;;;;;;4863528;29;20042;-50
2022/11/04 05:21:32;;;;;;;5.72;0.70;;;18.30;1.00;;;;;;4863552;29;20045;-53
2022/11/04 05:23:59;;;;;;;6.85;0.93;;;18.30;1.00;;;;;;4863620;29;20077;-48
2022/11/04 05:26:25;;;;;;;4.82;0.63;;;18.20;1.00;;;;;;4863690;29;20528;-48
2022/11/04 05:28:52;;;;;;;4.57;1.00;;;18.30;1.00;;;;;;4863071;29;20400;-50
2022/11/04 05:31:19;;;;;;;1.95;0.70;;;18.20;1.00;;;;;;4863441;29;20480;-51
2022/11/04 05:33:46;;;;;;;7.93;1.25;;;18.20;1.00;;;;;;4880950;29;20401;-47
2022/11/04 05:36:14;;;;;;;4.10;0.70;;;18.20;1.00;;;;;;4881765;29;20056;-49
2022/11/04 05:38:42;;;;;;;3.38;1.10;;;18.20;1.00;;;;;;4881612;29;20955;-52
2022/11/04 05:41:24;;;;;;;2.15;0.80;;;18.20;1.00;;;;;;4881801;29;20041;-49
2022/11/04 05:43:59;;;;;;;7.53;0.75;;;18.20;1.00;;;;;;4881816;29;20127;-51
2022/11/04 05:46:27;;;;;;;2.65;0.63;;;18.20;1.00;;;;;;4881699;29;20045;-49
2022/11/04 05:48:54;;;;;;;3.58;0.80;;;18.20;1.00;;;;;;4881306;29;20060;-55
2022/11/04 05:51:25;;;;;;;4.25;1.95;;;18.20;1.00;;;;;;4866006;29;20476;-53
2022/11/04 05:53:51;;;;;;;15.63;0.68;;;18.20;1.00;;;;;;4862253;29;20056;-50
2022/11/04 05:56:18;;;;;;;3.58;1.08;;;18.20;1.00;;;;;;4861205;29;20046;-51
2022/11/04 05:58:45;;;;;;;3.85;0.68;;;18.20;1.00;;;;;;4862436;29;20515;-50
2022/11/04 06:01:33;;;;;;;4.63;0.52;;;18.20;1.00;;;;;;4862672;29;20045;-52
2022/11/04 06:04:01;;;;;;;13.48;0.70;;;18.20;1.00;;;;;;4862909;29;20480;-48
2022/11/04 06:06:30;;;;;;;6.10;0.52;;;18.10;1.00;;;;;;4862754;29;20097;-48
2022/11/04 06:08:58;;;;;;;4.07;1.42;;;18.10;1.00;;;;;;4862407;29;20041;-52
2022/11/04 06:11:27;;;;;;;2.63;0.38;;;18.10;1.00;;;;;;4862557;29;20045;-49
2022/11/04 06:13:55;;;;;;;1.92;0.30;;;18.10;1.00;;;;;;4862637;29;20484;-46
2022/11/04 06:16:23;;;;;;;3.03;0.73;;;18.10;1.00;;;;;;4861700;29;20105;-47
2022/11/04 06:18:51;;;;;;;4.80;0.63;;;18.10;1.00;;;;;;4862235;29;20054;-47
2022/11/04 06:21:21;;;;;;;2.90;0.20;;;18.10;1.00;;;;;;4862531;29;20094;-49
2022/11/04 06:23:48;;;;;;;6.90;1.00;;;18.10;1.00;;;;;;4862409;29;20045;-52
2022/11/04 06:26:15;;;;;;;2.20;0.45;;;18.10;1.00;;;;;;4862488;29;20038;-52
2022/11/04 06:28:43;;;;;;;1.48;0.90;;;18.10;1.00;;;;;;4862068;29;20061;-50
2022/11/04 06:31:12;;;;;;;1.83;0.32;;;18.10;1.00;;;;;;4862296;29;20045;-51
2022/11/04 06:33:39;;;;;;;1.33;0.20;;;18.10;1.00;;;;;;4879252;29;20076;-48
2022/11/04 06:36:07;;;;;;;0.35;0.10;;;18.10;1.00;;;;;;4880823;29;20128;-49
2022/11/04 06:38:36;;;;;;;3.60;0.77;;;18.10;1.00;;;;;;4880299;29;20069;-51
2022/11/04 06:41:04;;;;;;;3.30;0.65;;;18.00;1.00;;;;;;4880487;29;20109;-51
2022/11/04 06:43:36;;;;;;;4.75;1.35;;;18.00;1.00;;;;;;4881044;29;20041;-51
2022/11/04 06:46:03;;;;;;;0.47;0.28;;;18.00;1.00;;;;;;4880855;29;20462;-49
2022/11/04 06:48:30;;;;;;;2.22;0.60;;;18.00;1.00;;;;;;4880046;29;20056;-52
2022/11/04 06:51:00;;;;;;;2.05;0.77;;;18.00;1.00;;;;;;4878656;29;20539;-50
2022/11/04 06:53:28;;;;;;;2.20;0.50;;;18.00;1.00;;;;;;4875311;29;20049;-51
2022/11/04 06:56:02;;;;;;;4.68;0.40;;;18.00;1.00;;;;;;4877299;29;20506;-50
2022/11/04 06:58:29;;;;;;;2.00;0.40;;;18.00;1.00;;;;;;4880383;29;20448;-51
2022/11/04 07:00:56;;;;;;;1.52;0.40;;;18.00;1.00;;;;;;4880072;29;20097;-49
2022/11/04 07:03:23;;;;;;;1.88;0.50;;;18.00;1.00;;;;;;4880712;29;20072;-52
2022/11/04 07:05:50;;;;;;;1.75;0.55;;;17.90;1.00;;;;;;4880181;29;20131;-49
2022/11/04 07:08:17;;;;;;;2.17;0.60;;;17.90;1.00;;;;;;4880131;29;20041;-52
2022/11/04 07:10:44;;;;;;;3.47;0.70;;;17.90;1.00;;;;;;4879729;29;20069;-47
2022/11/04 07:13:11;;;;;;;1.17;0.30;;;17.90;1.00;;;;;;4880197;29;20040;-49
2022/11/04 07:15:39;;;;;;;0.93;0.30;;;17.90;1.00;;;;;;4879975;29;20044;-49
2022/11/04 07:18:05;;;;;;;1.30;0.30;;;17.90;1.00;;;;;;4880304;29;20104;-48
2022/11/04 07:20:34;;;;;;;1.90;0.40;;;17.90;1.00;;;;;;4879577;29;20048;-51
2022/11/04 07:23:02;;;;;;;1.60;0.60;;;17.90;1.00;;;;;;4879898;29;20502;-49
2022/11/04 07:25:29;;;;;;;1.20;0.30;;;17.90;1.00;;;;;;4880034;29;20053;-48
2022/11/04 07:27:56;;;;;;;2.75;0.70;;;17.80;1.00;;;;;;4879544;29;20041;-52
2022/11/04 07:30:28;;;;;;;1.35;0.40;;;17.80;1.00;;;;;;4879532;29;20055;-49
2022/11/04 07:32:55;;;;;;;1.17;0.22;;;17.80;1.00;;;;;;4868428;29;20076;-50
2022/11/04 07:35:21;;;;;;;2.50;0.60;;;17.80;1.00;;;;;;4861590;29;20053;-51
2022/11/04 07:37:48;;;;;;;0.88;0.30;;;17.80;1.00;;;;;;4861307;29;20105;-54
2022/11/04 07:40:15;;;;;;;2.70;0.40;;;17.80;1.00;;;;;;4860857;29;20046;-49
2022/11/04 07:42:42;;;;;;;0.95;0.32;;;17.80;1.00;;;;;;4861439;29;20049;-50
2022/11/04 07:45:15;;;;;;;0.73;0.20;;;17.80;1.00;;;;;;4859878;29;20530;-50
2022/11/04 07:47:42;;;;;;;1.65;0.35;;;17.80;1.00;;;;;;4875260;29;20128;-48
2022/11/04 07:50:09;;;;;;;1.83;0.30;;;17.80;1.00;;;;;;4860838;29;20046;-51
2022/11/04 07:52:37;;;;;;;1.02;0.30;;;17.80;1.00;;;;;;4860995;29;20078;-49
2022/11/04 07:55:04;;;;;;;1.55;0.40;;;17.80;1.00;;;;;;4860596;29;20105;-52
2022/11/04 07:57:31;;;;;;;1.75;0.50;;;17.80;1.00;;;;;;4859303;29;20488;-51
2022/11/04 07:59:58;;;;;;;1.30;0.50;;;17.80;1.00;;;;;;4860233;29;20078;-50
2022/11/04 08:02:25;;;;;;;1.27;0.38;;;17.80;1.00;;;;;;4860828;29;20064;-52
2022/11/04 08:04:59;;;;;;;1.75;0.38;;;17.80;1.00;;;;;;4860829;29;20080;-53
2022/11/04 08:07:26;;;;;;;1.30;0.30;;;17.80;1.00;;;;;;4860428;29;20049;-51
2022/11/04 08:09:53;;;;;;;0.55;0.20;;;17.80;1.00;;;;;;4859752;29;20049;-53
2022/11/04 08:12:22;;;;;;;3.28;0.52;;;17.80;1.00;;;;;;4860849;29;20109;-55
2022/11/04 08:14:50;;;;;;;2.28;0.38;;;17.80;1.00;;;;;;4860585;29;20129;-54
2022/11/04 08:17:16;;;;;;;1.30;0.22;;;17.80;1.00;;;;;;4860412;29;20046;-50
2022/11/04 08:19:43;;;;;;;2.72;0.60;;;17.80;1.00;;;;;;4859971;29;20048;-48
2022/11/04 08:22:10;;;;;;;4.45;1.00;;;17.80;1.00;;;;;;4860826;29;20050;-48
2022/11/04 08:24:37;;;;;;;3.45;0.70;;;17.80;1.00;;;;;;4860490;29;20516;-50
2022/11/04 08:27:06;;;;;;;1.80;0.85;;;17.70;1.00;;;;;;4860267;29;20128;-48
2022/11/04 08:29:33;;;;;;;2.08;0.90;;;17.70;1.00;;;;;;4860332;29;20485;-49
2022/11/04 08:32:00;;;;;;;3.53;1.00;;;17.70;1.00;;;;;;4864537;29;20045;-49
2022/11/04 08:34:27;;;;;;;1.27;0.28;;;17.70;1.00;;;;;;4878763;29;20132;-53
2022/11/04 08:36:56;;;;;;;1.35;0.40;;;17.70;1.00;;;;;;4878843;29;20060;-50
2022/11/04 08:39:23;;;;;;;1.15;0.30;;;17.70;1.00;;;;;;4880212;29;20407;-50
2022/11/04 08:41:52;;;;;;;0.82;0.50;;;17.70;1.00;;;;;;4882715;29;20059;-48
2022/11/04 08:44:20;;;;;;;2.33;0.40;;;17.70;1.00;;;;;;4883378;29;20049;-51
2022/11/04 08:46:47;;;;;;;2.25;0.47;;;17.70;1.00;;;;;;4882605;29;20052;-48
2022/11/04 08:49:15;;;;;;;1.85;0.57;;;17.70;1.00;;;;;;4882635;29;20057;-48
2022/11/04 08:51:54;;;;;;;5.20;1.13;;;17.70;1.00;;;;;;4883072;29;20076;-49
2022/11/04 08:54:23;;;;;;;1.75;0.50;;;17.70;1.00;;;;;;4882767;29;20049;-49
2022/11/04 08:56:50;;;;;;;1.10;0.25;;;17.70;1.00;;;;;;4882515;29;20049;-47
2022/11/04 08:59:17;;;;;;;1.58;0.30;;;17.70;1.00;;;;;;4882021;29;20033;-50
2022/11/04 09:01:44;;;;;;;2.72;0.75;;;17.70;1.00;;;;;;4882574;29;20053;-49
2022/11/04 09:04:11;;;;;;;2.25;0.63;;;17.70;1.00;;;;;;4882498;29;20052;-47
2022/11/04 09:06:41;;;;;;;1.95;0.70;;;17.60;1.00;;;;;;4880941;29;20049;-46
2022/11/04 09:09:10;;;;;;;1.38;0.50;;;17.60;1.00;;;;;;4882025;29;20127;-46
2022/11/04 09:11:40;;;;;;;3.28;0.60;;;17.60;1.00;;;;;;4882041;29;20135;-46
2022/11/04 09:14:09;;;;;;;1.30;0.50;;;17.60;1.00;;;;;;4882251;29;20084;-47
2022/11/04 09:16:37;;;;;;;2.38;0.43;;;17.60;1.00;;;;;;4882108;29;20045;-48
2022/11/04 09:19:04;;;;;;;1.25;0.30;;;17.60;1.00;;;;;;4881675;29;20100;-47
2022/11/04 09:21:31;;;;;;;2.00;0.63;;;17.60;1.00;;;;;;4882254;29;20109;-51
2022/11/04 09:23:58;;;;;;;3.13;0.40;;;17.60;1.00;;;;;;4882563;29;20468;-49
2022/11/04 09:26:25;;;;;;;1.48;0.45;;;17.60;1.00;;;;;;4882025;29;20067;-47
2022/11/04 09:28:56;;;;;;;1.65;0.40;;;17.60;1.00;;;;;;4881900;29;20136;-49
2022/11/04 09:31:26;;;;;;;2.78;0.40;;;17.60;1.00;;;;;;4881867;29;20136;-48
2022/11/04 09:33:54;;;;;;;1.60;0.65;;;17.60;1.00;;;;;;4844852;29;20206;-50
2022/11/04 09:36:22;;;;;;;2.92;0.68;;;17.60;1.00;;;;;;4844818;29;20042;-49
2022/11/04 09:38:49;;;;;;;2.95;0.40;;;17.60;1.00;;;;;;4844548;29;20050;-50
2022/11/04 09:41:30;;;;;;;0.85;0.30;;;17.60;1.00;;;;;;4845094;29;20046;-51
2022/11/04 09:44:22;;;;;;;3.08;0.50;;;17.60;1.00;;;;;;4844861;29;20046;-52
2022/11/04 09:46:53;;;;;;;1.35;0.38;;;17.60;1.00;;;;;;4844586;29;20046;-49
2022/11/04 09:49:21;;;;;;;0.90;0.30;;;17.60;1.00;;;;;;4844267;29;20074;-52
2022/11/04 09:51:49;;;;;;;2.65;0.85;;;17.60;1.00;;;;;;4844600;29;20054;-51
2022/11/04 09:54:24;;;;;;;2.60;0.35;;;17.60;1.00;;;;;;4844696;29;20118;-54
2022/11/04 09:56:53;;;;;;;1.08;0.68;;;17.60;1.00;;;;;;4844585;29;20057;-50
2022/11/04 09:59:25;;;;;;;3.97;0.77;;;17.60;1.00;;;;;;4844051;29;20046;-50
2022/11/04 10:02:10;;;;;;;0.93;0.20;;;17.60;1.00;;;;;;4844381;29;20042;-48
2022/11/04 10:05:08;;;;;;;4.00;0.65;;;17.60;1.00;;;;;;4844272;29;20068;-48
2022/11/04 10:07:44;;;;;;;3.10;0.40;;;17.60;1.00;;;;;;4844458;29;20066;-49
2022/11/04 10:10:39;;;;;;;2.15;0.43;;;17.60;1.00;;;;;;4843778;29;20061;-48
2022/11/04 10:13:47;;;;;;;1.55;0.55;;;17.60;1.00;;;;;;4844179;29;20053;-47
2022/11/04 10:16:59;;;;;;;3.00;0.57;;;17.60;1.00;;;;;;4844201;29;20080;-48
2022/11/04 10:19:45;;;;;;;2.47;0.47;;;17.60;1.00;;;;;;4822518;29;20147;-53
2022/11/04 10:22:43;;;;;;;1.65;0.38;;;17.60;1.00;;;;;;4844021;29;20053;-51
2022/11/04 10:25:14;;;;;;;1.60;0.40;;;17.60;1.00;;;;;;4844112;29;20069;-49
2022/11/04 10:27:45;;;;;;;2.53;0.93;;;17.60;1.00;;;;;;4844148;29;20050;-47
2022/11/04 10:30:19;;;;;;;2.97;0.52;;;17.60;1.00;;;;;;4843702;29;20052;-49
2022/11/04 10:33:04;;;;;;;2.03;0.77;;;17.60;1.00;;;;;;4863964;29;20045;-52
2022/11/04 10:35:40;;;;;;;0.75;0.25;;;17.60;1.00;;;;;;4880805;29;20052;-48
2022/11/04 10:38:31;;;;;;;1.00;0.20;;;17.60;1.00;;;;;;4880568;29;20460;-49
2022/11/04 10:40:58;;;;;;;3.35;0.70;;;17.60;1.00;;;;;;4880563;29;20501;-49
2022/11/04 10:43:36;;;;;;;4.95;0.68;;;17.60;1.00;;;;;;4880967;29;20052;-50
2022/11/04 10:46:29;;;;;;;1.05;0.40;;;17.60;1.00;;;;;;4880639;29;20056;-48
2022/11/04 10:49:25;;;;;;;0.88;0.35;;;17.60;1.00;;;;;;4880372;29;20104;-47
2022/11/04 10:51:53;;;;;;;1.98;0.40;;;17.60;1.00;;;;;;4880476;29;20055;-51
2022/11/04 10:54:20;;;;;;;2.05;0.50;;;17.60;1.00;;;;;;4880587;29;20575;-48
2022/11/04 10:56:50;;;;;;;3.00;0.77;;;17.50;1.00;;;;;;4880934;29;20052;-49
2022/11/04 10:59:41;;;;;;;5.53;0.68;;;17.50;1.00;;;;;;4880315;29;20041;-52
2022/11/04 11:02:08;;;;;;;1.77;0.30;;;17.50;1.00;;;;;;4879987;29;20045;-51
2022/11/04 11:04:43;;;;;;;2.03;0.40;;;17.50;1.00;;;;;;4880563;29;20507;-48
2022/11/04 11:07:11;;;;;;;;;;;17.50;1.00;;;;;;4881088;29;20072;-48
2022/11/04 11:09:44;;;;;;;1.60;0.25;;;17.50;1.00;;;;;;4880062;29;19924;-51
2022/11/04 11:12:29;;;;;;;2.22;0.70;;;17.50;1.00;;;;;;4880316;29;20045;-54
2022/11/04 11:15:28;;;;;;;3.70;0.40;;;17.50;1.00;;;;;;4880246;29;20045;-50
2022/11/04 11:18:05;;;;;;;2.70;0.60;;;17.50;1.00;;;;;;4880248;29;20056;-52
2022/11/04 11:20:33;;;;;;;2.20;0.40;;;17.50;1.00;;;;;;4879546;29;20484;-49
2022/11/04 11:23:01;;;;;;;2.60;0.70;;;17.50;1.00;;;;;;4879881;29;20491;-49
2022/11/04 11:25:32;;;;;;;3.53;0.50;;;17.50;1.00;;;;;;4878682;29;20049;-52
2022/11/04 11:28:11;;;;;;;3.30;0.63;;;17.50;1.00;;;;;;4879993;29;20057;-47
2022/11/04 11:30:45;;;;;;;2.33;0.40;;;17.50;1.00;;;;;;4879497;29;20471;-51
2022/11/04 11:33:42;;;;;;;4.80;1.52;;;17.60;1.00;;;;;;4866320;29;20053;-47
2022/11/04 11:36:16;;;;;;;1.15;0.55;;;17.60;1.00;;;;;;4851500;29;20062;-49
2022/11/04 11:38:56;;;;;;;4.72;0.80;;;17.60;1.00;;;;;;4860823;29;20046;-48
2022/11/04 11:41:30;;;;;;;1.15;0.68;;;17.50;1.00;;;;;;4861085;29;20072;-50
2022/11/04 11:44:17;;;;;;;3.15;0.73;;;17.60;1.00;;;;;;4861493;29;20057;-52
2022/11/04 11:46:53;;;;;;;4.40;0.70;;;17.50;1.00;;;;;;4861012;29;20053;-53
2022/11/04 11:49:27;;;;;;;1.73;0.40;;;17.60;1.00;;;;;;4860683;29;20053;-50
2022/11/04 11:52:14;;;;;;;3.40;0.80;;;17.60;1.00;;;;;;4861450;29;20081;-49
2022/11/04 11:54:45;;;;;;;2.70;0.95;;;17.60;1.00;;;;;;4861005;29;20057;-51
2022/11/04 11:58:00;;;;;;;4.57;0.73;;;17.50;1.00;;;;;;4861010;29;20475;-48
2022/11/04 12:01:05;;;;;;;1.85;0.50;;;17.60;1.00;;;;;;4856333;29;20061;-49
2022/11/04 12:03:45;;;;;;;4.88;0.38;;;17.50;1.00;;;;;;4861148;29;20050;-47
2022/11/04 12:06:51;;;;;;;2.90;0.40;;;17.60;1.00;;;;;;4861033;29;20055;-50
2022/11/04 12:09:47;;;;;;;2.63;0.57;;;17.60;1.00;;;;;;4839814;29;20502;-51
2022/11/04 12:12:14;;;;;;;0.93;0.30;;;17.60;1.00;;;;;;4860912;29;20368;-52
2022/11/04 12:14:50;;;;;;;1.05;0.30;;;17.50;1.00;;;;;;4864006;29;20073;-47
2022/11/04 12:17:32;;;;;;;1.73;0.40;;;17.60;1.00;;;;;;4864694;29;20049;-47
2022/11/04 12:20:14;;;;;;;3.72;0.50;;;17.60;1.00;;;;;;4864109;29;20049;-52
2022/11/04 12:23:12;;;;;;;2.05;0.47;;;17.60;1.00;;;;;;4864724;29;20053;-48
2022/11/04 12:25:47;;;;;;;4.80;0.52;;;17.60;1.00;;;;;;4864519;29;20430;-52
2022/11/04 12:28:23;;;;;;;4.22;0.57;;;17.60;1.00;;;;;;4864435;29;20228;-50
2022/11/04 12:31:16;;;;;;;2.05;0.50;;;17.60;1.00;;;;;;4864221;29;20045;-47
2022/11/04 12:34:01;;;;;;;2.40;0.60;;;17.60;1.00;;;;;;4882027;29;20441;-47
2022/11/04 12:36:40;;;;;;;5.50;0.52;;;17.60;1.00;;;;;;4882761;29;20049;-48
2022/11/04 12:39:28;;;;;;;1.38;0.40;;;17.60;1.00;;;;;;4882951;29;20048;-50
2022/11/04 12:42:24;;;;;;;3.35;0.50;;;17.50;1.00;;;;;;4883119;29;20068;-50
2022/11/04 12:45:25;;;;;;;0.95;0.30;;;17.60;1.00;;;;;;4850418;29;20151;-55
2022/11/04 12:47:56;;;;;;;;;;;17.60;1.00;;;;;;4883252;29;20045;-51
2022/11/04 12:50:51;;;;;;;0.80;0.38;;;17.60;1.00;;;;;;4882428;29;19971;-50
2022/11/04 12:54:12;;;;;;;2.72;0.45;;;17.50;1.00;;;;;;4862613;29;20057;-53
2022/11/04 12:56:40;;;;;;;1.98;0.50;;;17.50;1.00;;;;;;4843872;29;20046;-49
2022/11/04 12:59:29;;;;;;;1.80;0.57;;;17.50;1.00;;;;;;4879854;29;20053;-48
2022/11/04 13:02:09;;;;;;;1.50;0.38;;;17.60;1.00;;;;;;4882506;29;20045;-50
2022/11/04 13:04:42;;;;;;;5.88;0.82;;;17.50;1.00;;;;;;4882529;29;20448;-50
2022/11/04 13:07:15;;;;;;;5.90;0.70;;;17.60;1.00;;;;;;4882536;29;20055;-49
2022/11/04 13:10:19;;;;;;;3.83;0.60;;;17.60;1.00;;;;;;4882231;29;20506;-48
2022/11/04 13:12:49;;;;;;;1.00;0.28;;;17.60;1.00;;;;;;4876388;29;20065;-54
2022/11/04 13:15:23;;;;;;;2.55;0.95;;;17.60;1.00;;;;;;4882069;29;20053;-49
2022/11/04 13:18:02;;;;;;;3.75;1.35;;;17.60;1.00;;;;;;4882518;29;20060;-50
2022/11/04 13:20:42;;;;;;;1.10;0.47;;;17.60;1.00;;;;;;4881729;29;20083;-49
2022/11/04 13:23:22;;;;;;;1.13;0.47;;;17.60;1.00;;;;;;4882255;29;20044;-52
2022/11/04 13:25:51;;;;;;;1.67;0.50;;;17.60;1.00;;;;;;4881483;29;20387;-50
2022/11/04 13:28:21;;;;;;;1.15;0.35;;;17.60;1.00;;;;;;4881966;29;20037;-49
2022/11/04 13:31:11;;;;;;;2.50;0.55;;;17.60;1.00;;;;;;4882003;29;20053;-52
2022/11/04 13:33:56;;;;;;;0.82;0.35;;;17.60;1.00;;;;;;4865336;29;20045;-52
2022/11/04 13:36:39;;;;;;;2.13;0.40;;;17.60;1.00;;;;;;4863367;29;20056;-52
2022/11/04 13:39:21;;;;;;;1.13;0.53;;;17.60;1.00;;;;;;4862998;29;20057;-50
2022/11/04 13:42:33;;;;;;;1.98;0.50;;;17.60;1.00;;;;;;4863567;29;20049;-50
2022/11/04 13:45:09;;;;;;;1.05;0.38;;;17.60;1.00;;;;;;4863051;29;20053;-48
2022/11/04 13:47:44;;;;;;;2.67;0.93;;;17.60;1.00;;;;;;4863496;29;20120;-49
2022/11/04 13:50:34;;;;;;;4.55;0.30;;;17.60;1.00;;;;;;4862847;29;20060;-47
2022/11/04 13:53:03;;;;;;;4.10;0.43;;;17.60;1.00;;;;;;4863034;29;20056;-50
2022/11/04 13:55:31;;;;;;;2.88;0.65;;;17.60;1.00;;;;;;4863081;29;20045;-48
2022/11/04 13:58:00;;;;;;;1.63;1.05;;;17.60;1.00;;;;;;4863153;29;20049;-50
2022/11/04 14:00:36;;;;;;;3.00;0.43;;;17.60;1.00;;;;;;4862284;29;20049;-50
2022/11/04 14:03:26;;;;;;;2.00;0.32;;;17.60;1.00;;;;;;4862820;29;20084;-50